Time;durP1;ratioP1;P1;durP2;ratioP2;P2;SDS_P1;SDS_P2;PMS_P1;PMS_P2;Temp;Humidity;BMP_temperature;BMP_pressure;BME280_temperature;BME280_humidity;BME280_pressure;Samples;Min_cycle;Max_cycle;Signal;HPM_P1;HPM_P2
2023/05/28 00:01:03;;;;;;;;;;;;;;;14.88;41.08;98231.84;5038577;28;20343;-68
2023/05/28 00:03:32;;;;;;;;;;;;;;;15.00;40.74;98231.91;5050481;28;19921;-68
2023/05/28 00:06:01;;;;;;;;;;;;;;;14.98;40.85;98228.72;5037924;28;19921;-68
2023/05/28 00:08:29;;;;;;;;;;;;;;;14.91;41.61;98233.91;5040221;28;19921;-67
2023/05/28 00:10:59;;;;;;;;;;;;;;;14.67;41.85;98224.41;5045552;28;19979;-68
2023/05/28 00:13:28;;;;;;;;;;;;;;;14.74;41.71;98228.53;5043160;28;19963;-67
2023/05/28 00:15:55;;;;;;;;;;;;;;;14.65;42.28;98226.66;5051676;28;20236;-67
2023/05/28 00:18:28;;;;;;;;;;;;;;;14.34;42.53;98226.16;5039029;28;19929;-67
2023/05/28 00:20:56;;;;;;;;;;;;;;;14.36;42.83;98229.34;5064136;28;19920;-68
2023/05/28 00:23:25;;;;;;;;;;;;;;;13.99;43.79;98230.91;5038331;28;19921;-67
2023/05/28 00:25:53;;;;;;;;;;;;;;;14.12;43.68;98230.72;5062009;28;19967;-67
2023/05/28 00:28:21;;;;;;;;;;;;;;;14.16;43.27;98228.94;5055341;28;19927;-67
2023/05/28 00:30:49;;;;;;;;;;;;;;;14.26;43.12;98224.25;5053096;28;19920;-67
2023/05/28 00:33:17;;;;;;;;;;;;;;;14.32;43.35;98222.91;5044040;28;19921;-69
2023/05/28 00:35:45;;;;;;;;;;;;;;;14.31;43.15;98219.38;5077483;28;20020;-67
2023/05/28 00:38:16;;;;;;;;;;;;;;;14.19;43.35;98215.75;5069353;28;19924;-67
2023/05/28 00:40:45;;;;;;;;;;;;;;;14.47;42.69;98216.09;5051228;28;19924;-67
2023/05/28 00:43:13;;;;;;;;;;;;;;;14.40;43.12;98217.44;5047352;28;19920;-67
2023/05/28 00:45:41;;;;;;;;;;;;;;;14.50;42.68;98216.28;5046886;28;19921;-67
2023/05/28 00:48:08;;;;;;;;;;;;;;;14.59;42.62;98210.75;5044030;28;19920;-67
2023/05/28 00:50:38;;;;;;;;;;;;;;;14.66;42.42;98209.13;5058910;28;19928;-68
2023/05/28 00:53:06;;;;;;;;;;;;;;;14.58;42.78;98211.91;5044180;28;19921;-68
2023/05/28 00:55:33;;;;;;;;;;;;;;;14.07;44.05;98219.19;5044881;28;19956;-67
2023/05/28 00:58:05;;;;;;;;;;;;;;;14.41;43.25;98210.03;5052444;28;19921;-67
2023/05/28 01:00:33;;;;;;;;;;;;;;;14.33;43.56;98216.34;5057626;28;19921;-67
2023/05/28 01:03:01;;;;;;;;;;;;;;;14.35;43.15;98203.94;5054175;28;19954;-67
2023/05/28 01:05:31;;;;;;;;;;;;;;;14.29;43.31;98212.66;5045262;28;19931;-67
2023/05/28 01:08:00;;;;;;;;;;;;;;;14.25;43.79;98206.25;5064900;28;19921;-67
2023/05/28 01:10:28;;;;;;;;;;;;;;;14.38;43.54;98206.03;5050309;28;19921;-67
2023/05/28 01:12:56;;;;;;;;;;;;;;;14.38;43.60;98197.00;5046141;28;19927;-67
2023/05/28 01:15:27;;;;;;;;;;;;;;;14.28;44.08;98205.59;5042910;28;19959;-68
2023/05/28 01:17:57;;;;;;;;;;;;;;;14.30;43.49;98203.34;5042236;28;20136;-69
2023/05/28 01:20:27;;;;;;;;;;;;;;;13.79;44.87;98199.63;5047857;28;20273;-68
2023/05/28 01:22:56;;;;;;;;;;;;;;;14.12;44.07;98191.69;5042807;28;19925;-69
2023/05/28 01:25:26;;;;;;;;;;;;;;;14.16;44.41;98187.94;5062298;28;19970;-68
2023/05/28 01:27:53;;;;;;;;;;;;;;;14.01;44.52;98190.41;5061543;28;20273;-68
2023/05/28 01:30:22;;;;;;;;;;;;;;;14.29;44.13;98196.28;5035458;28;19921;-68
2023/05/28 01:32:50;;;;;;;;;;;;;;;14.16;44.19;98187.94;5045496;28;19927;-68
2023/05/28 01:35:18;;;;;;;;;;;;;;;14.36;43.61;98197.34;5040166;28;19928;-68
2023/05/28 01:37:48;;;;;;;;;;;;;;;14.16;44.28;98195.34;5046772;28;19974;-68
2023/05/28 01:40:16;;;;;;;;;;;;;;;13.89;44.80;98194.63;5050159;28;19963;-67
2023/05/28 01:42:45;;;;;;;;;;;;;;;13.71;45.69;98203.19;5075587;28;19921;-68
2023/05/28 01:45:13;;;;;;;;;;;;;;;13.73;45.63;98207.19;5057136;28;20361;-67
2023/05/28 01:47:42;;;;;;;;;;;;;;;13.87;45.37;98196.09;5055447;28;20024;-68
2023/05/28 01:50:10;;;;;;;;;;;;;;;13.50;45.79;98201.16;5047103;28;19928;-68
2023/05/28 01:52:39;;;;;;;;;;;;;;;13.83;45.56;98200.59;5072021;28;19928;-67
2023/05/28 01:55:08;;;;;;;;;;;;;;;13.86;45.25;98195.28;5044136;28;19974;-68
2023/05/28 01:57:36;;;;;;;;;;;;;;;13.55;46.19;98200.19;5070231;28;19927;-69
2023/05/28 02:00:07;;;;;;;;;;;;;;;13.41;47.20;98194.09;5053113;28;19920;-67
2023/05/28 02:02:42;;;;;;;;;;;;;;;13.58;46.52;98196.78;5058105;28;19959;-67
2023/05/28 02:05:15;;;;;;;;;;;;;;;13.87;45.70;98196.09;5064954;28;20047;-68
2023/05/28 02:07:42;;;;;;;;;;;;;;;13.92;45.33;98193.19;5079643;28;19986;-68
2023/05/28 02:10:11;;;;;;;;;;;;;;;13.95;45.29;98192.53;5050790;28;20350;-67
2023/05/28 02:12:38;;;;;;;;;;;;;;;14.00;45.01;98184.16;5059630;28;19928;-67
2023/05/28 02:15:10;;;;;;;;;;;;;;;13.82;45.76;98194.34;5048628;28;19920;-67
2023/05/28 02:17:38;;;;;;;;;;;;;;;13.60;46.14;98197.28;5039536;28;19932;-67
2023/05/28 02:20:08;;;;;;;;;;;;;;;13.65;46.24;98196.31;5054536;28;19921;-67
2023/05/28 02:22:36;;;;;;;;;;;;;;;13.38;46.51;98190.09;5041136;28;19932;-67
2023/05/28 02:25:04;;;;;;;;;;;;;;;13.27;47.33;98186.09;5065816;28;19920;-68
2023/05/28 02:27:32;;;;;;;;;;;;;;;13.44;47.07;98188.00;5053507;28;19920;-68
2023/05/28 02:30:00;;;;;;;;;;;;;;;13.24;47.55;98187.50;5048539;28;19924;-67
2023/05/28 02:32:30;;;;;;;;;;;;;;;13.44;47.35;98185.25;5072608;28;19928;-67
2023/05/28 02:34:59;;;;;;;;;;;;;;;12.89;48.54;98183.13;5070470;28;19927;-67
2023/05/28 02:37:26;;;;;;;;;;;;;;;13.14;48.03;98184.28;5045202;28;19956;-67
2023/05/28 02:39:54;;;;;;;;;;;;;;;13.05;48.04;98187.03;5066245;28;19969;-67
2023/05/28 02:42:23;;;;;;;;;;;;;;;13.18;47.73;98180.59;5045835;28;19920;-67
2023/05/28 02:44:50;;;;;;;;;;;;;;;13.24;47.68;98181.25;5045482;28;19961;-67
2023/05/28 02:47:21;;;;;;;;;;;;;;;13.40;47.20;98181.56;5050916;28;19921;-67
2023/05/28 02:49:52;;;;;;;;;;;;;;;13.31;47.39;98178.84;5043015;28;19927;-72
2023/05/28 02:52:20;;;;;;;;;;;;;;;13.35;47.32;98171.63;5039338;28;19932;-67
2023/05/28 02:54:48;;;;;;;;;;;;;;;13.15;47.77;98174.97;5057432;28;20003;-68
2023/05/28 02:57:19;;;;;;;;;;;;;;;12.77;49.27;98170.13;5046786;28;19973;-68
2023/05/28 02:59:49;;;;;;;;;;;;;;;12.98;48.53;98181.22;5053070;28;19932;-67
2023/05/28 03:02:18;;;;;;;;;;;;;;;12.69;49.53;98184.56;5041205;28;19921;-68
2023/05/28 03:04:47;;;;;;;;;;;;;;;12.95;48.55;98174.50;5050369;28;19929;-67
2023/05/28 03:07:18;;;;;;;;;;;;;;;13.21;47.98;98179.13;5048554;28;19955;-67
2023/05/28 03:09:45;;;;;;;;;;;;;;;13.36;47.71;98178.69;5046260;28;19924;-67
2023/05/28 03:12:13;;;;;;;;;;;;;;;13.40;47.41;98185.09;5043933;28;20438;-67
2023/05/28 03:14:41;;;;;;;;;;;;;;;12.97;48.80;98182.34;5059663;28;19924;-67
2023/05/28 03:17:10;;;;;;;;;;;;;;;13.22;47.96;98180.78;5037675;28;19963;-67
2023/05/28 03:19:39;;;;;;;;;;;;;;;13.16;48.37;98188.31;5060357;28;19932;-67
2023/05/28 03:22:07;;;;;;;;;;;;;;;12.64;49.99;98188.25;5041731;28;19948;-68
2023/05/28 03:24:41;;;;;;;;;;;;;;;12.87;49.06;98188.91;5057976;28;19928;-67
2023/05/28 03:27:12;;;;;;;;;;;;;;;12.56;50.02;98192.53;5059488;28;20381;-67
2023/05/28 03:29:40;;;;;;;;;;;;;;;12.55;50.12;98185.50;5056183;28;19943;-67
2023/05/28 03:32:21;;;;;;;;;;;;;;;12.80;49.50;98196.78;5061307;28;19955;-68
2023/05/28 03:34:49;;;;;;;;;;;;;;;12.88;49.35;98195.16;5064366;28;19920;-68
2023/05/28 03:37:22;;;;;;;;;;;;;;;12.67;50.06;98186.81;5057842;28;20003;-68
2023/05/28 03:39:52;;;;;;;;;;;;;;;12.41;50.75;98190.28;5044319;28;19921;-67
2023/05/28 03:42:20;;;;;;;;;;;;;;;12.41;51.26;98190.28;5044448;28;19952;-67
2023/05/28 03:44:47;;;;;;;;;;;;;;;12.22;51.47;98189.72;5053142;28;19927;-67
2023/05/28 03:47:16;;;;;;;;;;;;;;;12.14;52.04;98190.50;5054951;28;20023;-67
2023/05/28 03:49:44;;;;;;;;;;;;;;;12.22;51.90;98181.56;5048749;28;19919;-67
2023/05/28 03:52:11;;;;;;;;;;;;;;;12.21;52.05;98188.13;5060316;28;19963;-67
2023/05/28 03:54:52;;;;;;;;;;;;;;;12.50;51.29;98176.66;5046318;28;19936;-67
2023/05/28 03:57:20;;;;;;;;;;;;;;;12.59;50.77;98170.13;5047621;28;19927;-68
2023/05/28 03:59:48;;;;;;;;;;;;;;;12.72;50.36;98178.47;5056559;28;19920;-67
2023/05/28 04:02:16;;;;;;;;;;;;;;;12.45;51.21;98174.09;5064958;28;20019;-67
2023/05/28 04:04:45;;;;;;;;;;;;;;;12.43;51.67;98179.88;5042097;28;19974;-67
2023/05/28 04:07:12;;;;;;;;;;;;;;;12.51;51.09;98178.28;5055247;28;19931;-67
2023/05/28 04:09:41;;;;;;;;;;;;;;;12.69;50.68;98170.94;5047264;28;19932;-66
2023/05/28 04:12:10;;;;;;;;;;;;;;;12.84;50.31;98174.00;5056655;28;20346;-67
2023/05/28 04:14:40;;;;;;;;;;;;;;;12.85;50.49;98166.63;5053195;28;19932;-67
2023/05/28 04:17:10;;;;;;;;;;;;;;;12.65;51.03;98169.97;5065971;28;19920;-66
2023/05/28 04:19:38;;;;;;;;;;;;;;;12.46;51.61;98165.59;5046002;28;21696;-66
2023/05/28 04:22:06;;;;;;;;;;;;;;;12.54;51.23;98169.47;5063659;28;19930;-67
2023/05/28 04:24:34;;;;;;;;;;;;;;;12.61;51.25;98177.16;5052730;28;19960;-67
2023/05/28 04:27:02;;;;;;;;;;;;;;;12.85;50.52;98174.81;5042826;28;20480;-67
2023/05/28 04:29:33;;;;;;;;;;;;;;;12.99;50.21;98171.91;5054147;28;19938;-67
2023/05/28 04:32:01;;;;;;;;;;;;;;;12.77;51.31;98170.94;5049288;28;20363;-68
2023/05/28 04:34:28;;;;;;;;;;;;;;;12.77;51.52;98175.59;5054749;28;20019;-67
2023/05/28 04:36:57;;;;;;;;;;;;;;;12.81;51.18;98176.56;5056757;28;20011;-67
2023/05/28 04:39:26;;;;;;;;;;;;;;;12.29;53.34;98171.00;5048740;28;19928;-67
2023/05/28 04:41:54;;;;;;;;;;;;;;;12.40;53.08;98171.50;5055958;28;20423;-67
2023/05/28 04:44:25;;;;;;;;;;;;;;;12.70;52.18;98170.63;5068588;28;19921;-68
2023/05/28 04:46:55;;;;;;;;;;;;;;;12.65;52.05;98172.69;5060958;28;20400;-66
2023/05/28 04:49:23;;;;;;;;;;;;;;;12.91;51.62;98176.25;5044431;28;19927;-66
2023/05/28 04:51:51;;;;;;;;;;;;;;;12.95;51.60;98177.22;5060581;28;20019;-66
2023/05/28 04:54:19;;;;;;;;;;;;;;;12.89;51.84;98181.25;5057217;28;20270;-66
2023/05/28 04:56:48;;;;;;;;;;;;;;;13.06;52.12;98186.69;5071091;28;19928;-66
2023/05/28 04:59:15;;;;;;;;;;;;;;;13.15;51.57;98181.22;5044873;28;19947;-67
2023/05/28 05:01:43;;;;;;;;;;;;;;;13.09;52.11;98186.03;5060883;28;19924;-66
2023/05/28 05:04:13;;;;;;;;;;;;;;;13.29;51.52;98186.56;5047478;28;20076;-67
2023/05/28 05:06:42;;;;;;;;;;;;;;;13.10;51.75;98184.94;5058382;28;19921;-67
2023/05/28 05:09:10;;;;;;;;;;;;;;;13.15;51.66;98180.41;5050961;28;19921;-67
2023/05/28 05:11:38;;;;;;;;;;;;;;;13.36;51.55;98186.84;5052746;28;19927;-66
2023/05/28 05:14:06;;;;;;;;;;;;;;;13.00;52.88;98179.81;5048072;28;19921;-66
2023/05/28 05:16:34;;;;;;;;;;;;;;;13.14;52.27;98184.28;5062890;28;20023;-66
2023/05/28 05:19:02;;;;;;;;;;;;;;;12.99;53.06;98182.81;5041164;28;19921;-66
2023/05/28 05:21:32;;;;;;;;;;;;;;;13.07;53.08;98188.28;5044998;28;19921;-65
2023/05/28 05:24:00;;;;;;;;;;;;;;;13.39;52.06;98180.78;5046038;28;19933;-66
2023/05/28 05:26:28;;;;;;;;;;;;;;;13.38;52.72;98186.56;5044632;28;19921;-66
2023/05/28 05:28:56;;;;;;;;;;;;;;;13.44;51.92;98179.81;5043965;28;20573;-66
2023/05/28 05:31:24;;;;;;;;;;;;;;;13.70;52.02;98186.03;5052112;28;19971;-65
2023/05/28 05:33:53;;;;;;;;;;;;;;;13.77;51.35;98196.44;5042135;28;19944;-65
2023/05/28 05:36:41;;;;;;;;;;;;;;;13.69;51.24;98184.44;5042277;28;19956;-65
2023/05/28 05:39:28;;;;;;;;;;;;;;;13.75;51.64;98193.25;5046451;28;19932;-66
2023/05/28 05:42:22;;;;;;;;;;;;;;;13.76;51.59;98194.84;5049705;28;20376;-65
2023/05/28 05:44:54;;;;;;;;;;;;;;;14.07;50.92;98192.66;5049091;28;20401;-67
2023/05/28 05:47:22;;;;;;;;;;;;;;;14.20;50.52;98192.75;5043401;28;20008;-65
2023/05/28 05:49:51;;;;;;;;;;;;;;;13.93;50.81;98199.44;5059984;28;20255;-65
2023/05/28 05:52:21;;;;;;;;;;;;;;;14.08;50.85;98186.06;5051839;28;19921;-66
2023/05/28 05:54:53;;;;;;;;;;;;;;;14.11;51.22;98187.31;5059302;28;19921;-67
2023/05/28 05:57:21;;;;;;;;;;;;;;;14.13;51.79;98193.28;5052844;28;19924;-65
2023/05/28 05:59:49;;;;;;;;;;;;;;;14.31;51.04;98191.25;5045866;28;20019;-65
2023/05/28 06:02:18;;;;;;;;;;;;;;;14.25;50.63;98195.31;5053990;28;19924;-66
2023/05/28 06:04:46;;;;;;;;;;;;;;;14.62;49.47;98193.72;5045201;28;20366;-67
2023/05/28 06:07:36;;;;;;;;;;;;;;;14.67;49.84;98196.25;5061488;28;19971;-66
2023/05/28 06:10:19;;;;;;;;;;;;;;;14.81;49.86;98196.03;5063592;28;20006;-65
2023/05/28 06:12:47;;;;;;;;;;;;;;;14.91;49.13;98190.97;5042439;28;19921;-65
2023/05/28 06:15:15;;;;;;;;;;;;;;;15.11;49.36;98194.81;5043462;28;19925;-64
2023/05/28 06:17:43;;;;;;;;;;;;;;;15.02;48.94;98196.84;5048271;28;20263;-65
2023/05/28 06:20:15;;;;;;;;;;;;;;;15.20;48.65;98186.53;5045622;28;20244;-68
2023/05/28 06:22:44;;;;;;;;;;;;;;;15.19;49.35;98195.91;5058081;28;19925;-65
2023/05/28 06:25:12;;;;;;;;;;;;;;;15.38;48.12;98193.47;5043891;28;19987;-66
2023/05/28 06:27:40;;;;;;;;;;;;;;;15.45;48.58;98190.19;5035795;28;19964;-67
2023/05/28 06:30:08;;;;;;;;;;;;;;;15.55;48.06;98191.69;5039952;28;19924;-67
2023/05/28 06:32:37;;;;;;;;;;;;;;;15.43;48.07;98184.25;5039372;28;19947;-68
2023/05/28 06:35:05;;;;;;;;;;;;;;;15.39;48.49;98184.13;5032543;28;19921;-66
2023/05/28 06:37:33;;;;;;;;;;;;;;;15.62;48.10;98181.81;5049136;28;19928;-66
2023/05/28 06:40:06;;;;;;;;;;;;;;;15.69;47.83;98176.59;5040171;28;20010;-65
2023/05/28 06:42:34;;;;;;;;;;;;;;;15.49;48.71;98182.09;5049909;28;19932;-67
2023/05/28 06:45:21;;;;;;;;;;;;;;;15.69;47.92;98178.53;5039543;28;20351;-67
2023/05/28 06:47:50;;;;;;;;;;;;;;;15.94;47.16;98182.16;5066699;28;19921;-67
2023/05/28 06:50:18;;;;;;;;;;;;;;;16.02;48.30;98194.94;5050758;28;19924;-67
2023/05/28 06:52:51;;;;;;;;;;;;;;;16.27;47.60;98187.56;5051046;28;19920;-68
2023/05/28 06:55:20;;;;;;;;;;;;;;;16.33;46.86;98188.13;5060056;28;19929;-67
2023/05/28 06:58:20;;;;;;;;;;;;;;;16.33;46.91;98193.59;5050815;28;20289;-67
2023/05/28 07:01:16;;;;;;;;;;;;;;;16.60;46.81;98187.44;5039140;28;19928;-67
2023/05/28 07:04:00;;;;;;;;;;;;;;;16.36;46.33;98190.19;5042545;28;20016;-68
2023/05/28 07:06:46;;;;;;;;;;;;;;;16.66;45.86;98191.53;5061741;28;19921;-68
2023/05/28 07:09:22;;;;;;;;;;;;;;;16.80;45.56;98195.91;5049556;28;20285;-67
2023/05/28 07:11:52;;;;;;;;;;;;;;;16.85;44.63;98192.94;5052623;28;19921;-68
2023/05/28 07:14:20;;;;;;;;;;;;;;;16.69;45.14;98201.03;5056489;28;19921;-67
2023/05/28 07:16:50;;;;;;;;;;;;;;;16.85;45.40;98193.72;5048301;28;19928;-68
2023/05/28 07:19:18;;;;;;;;;;;;;;;17.15;43.95;98194.25;5061331;28;19928;-68
2023/05/28 07:21:46;;;;;;;;;;;;;;;17.28;44.04;98184.81;5068618;28;19960;-68
2023/05/28 07:24:14;;;;;;;;;;;;;;;17.23;43.38;98193.28;5054387;28;19925;-62
2023/05/28 07:26:44;;;;;;;;;;;;;;;17.37;43.63;98192.91;5056126;28;19932;-62
2023/05/28 07:29:18;;;;;;;;;;;;;;;17.54;43.10;98191.81;5058870;28;19929;-62
2023/05/28 07:31:46;;;;;;;;;;;;;;;17.57;42.68;98195.78;5061690;28;19930;-63
2023/05/28 07:34:15;;;;;;;;;;;;;;;17.67;42.23;98193.34;5041215;28;19988;-63
2023/05/28 07:36:43;;;;;;;;;;;;;;;17.74;42.89;98193.59;5035482;28;19948;-60
2023/05/28 07:39:13;;;;;;;;;;;;;;;17.67;42.05;98190.59;5026353;28;20594;-61
2023/05/28 07:41:42;;;;;;;;;;;;;;;17.70;41.84;98187.16;5029806;28;20283;-61
2023/05/28 07:44:21;;;;;;;;;;;;;;;17.83;42.51;98187.91;5064013;28;19971;-61
2023/05/28 07:46:50;;;;;;;;;;;;;;;17.73;41.94;98189.22;5058547;28;19925;-62
2023/05/28 07:49:43;;;;;;;;;;;;;;;17.98;41.62;98183.59;5024999;28;19921;-64
2023/05/28 07:52:13;;;;;;;;;;;;;;;17.83;41.59;98187.91;5024120;28;20363;-61
2023/05/28 07:54:42;;;;;;;;;;;;;;;17.75;41.88;98186.94;5066032;28;19921;-61
2023/05/28 07:57:14;;;;;;;;;;;;;;;17.83;42.00;98187.91;5026547;28;19925;-61
2023/05/28 07:59:44;;;;;;;;;;;;;;;18.00;41.04;98175.78;5056095;28;19932;-61
2023/05/28 08:02:13;;;;;;;;;;;;;;;18.06;40.64;98179.88;5045316;28;19929;-61
2023/05/28 08:04:40;;;;;;;;;;;;;;;18.09;39.91;98178.38;5045363;28;20019;-60
2023/05/28 08:07:10;;;;;;;;;;;;;;;18.18;40.01;98185.28;5029557;28;19935;-65
2023/05/28 08:09:38;;;;;;;;;;;;;;;18.31;38.90;98170.28;5025388;28;20019;-64
2023/05/28 08:12:07;;;;;;;;;;;;;;;18.18;39.37;98176.25;5031762;28;19921;-65
2023/05/28 08:14:35;;;;;;;;;;;;;;;18.27;40.47;98177.66;5053331;28;19922;-66
2023/05/28 08:17:09;;;;;;;;;;;;;;;18.54;39.88;98172.41;5030435;28;19955;-61
2023/05/28 08:20:04;;;;;;;;;;;;;;;18.67;39.21;98176.63;5028953;28;19921;-62
2023/05/28 08:22:44;;;;;;;;;;;;;;;18.75;38.73;98172.94;5045509;28;19921;-61
2023/05/28 08:25:12;;;;;;;;;;;;;;;18.80;37.87;98169.91;5041463;28;19921;-61
2023/05/28 08:27:40;;;;;;;;;;;;;;;18.73;38.22;98174.44;5042740;28;20362;-61
2023/05/28 08:30:09;;;;;;;;;;;;;;;18.69;36.62;98168.84;5050738;28;19925;-62
2023/05/28 08:32:45;;;;;;;;;;;;;;;18.90;36.75;98170.47;5046111;28;19921;-62
2023/05/28 08:35:14;;;;;;;;;;;;;;;19.01;37.44;98168.75;5064940;28;20327;-61
2023/05/28 08:37:42;;;;;;;;;;;;;;;19.08;36.47;98169.72;5040421;28;19921;-60
2023/05/28 08:40:21;;;;;;;;;;;;;;;19.07;36.65;98161.84;5044987;28;19929;-60
2023/05/28 08:42:50;;;;;;;;;;;;;;;19.09;36.46;98165.00;5051248;28;19928;-65
2023/05/28 08:45:19;;;;;;;;;;;;;;;18.99;34.76;98166.38;5041703;28;19929;-66
2023/05/28 08:47:51;;;;;;;;;;;;;;;19.10;35.03;98164.63;5063793;28;19929;-65
2023/05/28 08:50:24;;;;;;;;;;;;;;;19.31;35.10;98166.25;5062303;28;20350;-66
2023/05/28 08:53:01;;;;;;;;;;;;;;;19.37;34.25;98157.31;5045692;28;19921;-66
2023/05/28 08:55:31;;;;;;;;;;;;;;;19.44;33.70;98150.34;5051397;28;19920;-65
2023/05/28 08:58:10;;;;;;;;;;;;;;;19.56;34.63;98150.22;5057426;28;19959;-66
2023/05/28 09:00:38;;;;;;;;;;;;;;;19.60;34.68;98145.56;5050054;28;20304;-65
2023/05/28 09:03:32;;;;;;;;;;;;;;;19.72;35.04;98141.88;5037753;28;19933;-65
2023/05/28 09:06:07;;;;;;;;;;;;;;;19.84;35.13;98150.75;5055894;28;19924;-65
2023/05/28 09:08:36;;;;;;;;;;;;;;;19.80;35.82;98149.09;5061407;28;19920;-65
2023/05/28 09:11:13;;;;;;;;;;;;;;;19.86;35.71;98136.59;5046510;28;19951;-65
2023/05/28 09:13:44;;;;;;;;;;;;;;;19.80;35.85;98132.56;5040765;28;19921;-65
2023/05/28 09:16:16;;;;;;;;;;;;;;;19.75;35.96;98141.94;5050374;28;19921;-62
2023/05/28 09:18:47;;;;;;;;;;;;;;;19.82;35.75;98130.25;5044380;28;19921;-63
2023/05/28 09:21:24;;;;;;;;;;;;;;;19.87;36.47;98128.00;5183601;27;19915;-62
2023/05/28 09:23:52;;;;;;;;;;;;;;;19.99;36.06;98117.94;5150063;27;20002;-62
2023/05/28 09:26:30;;;;;;;;;;;;;;;20.02;35.98;98117.19;5161612;27;19950;-63
2023/05/28 09:29:12;;;;;;;;;;;;;;;20.04;35.66;98121.19;5146742;27;19927;-62
2023/05/28 09:31:40;;;;;;;;;;;;;;;20.13;36.83;98123.66;5158563;27;20023;-62
2023/05/28 09:34:08;;;;;;;;;;;;;;;20.24;36.04;98124.66;5163692;27;19944;-64
2023/05/28 09:36:38;;;;;;;;;;;;;;;20.25;34.88;98120.72;5166175;27;19919;-64
2023/05/28 09:39:09;;;;;;;;;;;;;;;20.33;34.01;98105.88;5164503;27;19923;-63
2023/05/28 09:41:43;;;;;;;;;;;;;;;20.44;32.91;98106.03;5168486;27;19919;-62
2023/05/28 09:44:12;;;;;;;;;;;;;;;20.45;31.35;98107.63;5155283;27;19933;-62
2023/05/28 09:46:40;;;;;;;;;;;;;;;20.42;31.09;98108.38;5157831;27;20347;-63
2023/05/28 09:49:08;;;;;;;;;;;;;;;20.50;32.15;98112.06;5159726;27;20320;-63
2023/05/28 09:51:37;;;;;;;;;;;;;;;20.71;29.39;98104.06;5162684;27;20017;-67
2023/05/28 09:54:06;;;;;;;;;;;;;;;20.82;29.95;98107.78;5162756;27;19968;-63
2023/05/28 09:56:34;;;;;;;;;;;;;;;20.82;30.97;98105.00;5141669;27;19951;-63
2023/05/28 09:59:05;;;;;;;;;;;;;;;20.87;32.00;98101.13;5166528;27;20371;-64
2023/05/28 10:01:34;;;;;;;;;;;;;;;20.89;31.13;98087.75;5161958;27;19927;-65
2023/05/28 10:04:03;;;;;;;;;;;;;;;20.81;30.85;98092.38;5149454;27;20386;-67
2023/05/28 10:06:31;;;;;;;;;;;;;;;20.89;31.36;98091.31;5151967;27;19919;-65
2023/05/28 10:09:00;;;;;;;;;;;;;;;20.93;30.53;98092.16;5153141;27;19976;-65
2023/05/28 10:11:28;;;;;;;;;;;;;;;21.02;30.06;98088.31;5169140;27;19919;-63
2023/05/28 10:13:56;;;;;;;;;;;;;;;21.03;30.97;98087.91;5167679;27;19923;-64
2023/05/28 10:16:24;;;;;;;;;;;;;;;21.07;30.69;98082.44;5158134;27;19920;-65
2023/05/28 10:18:52;;;;;;;;;;;;;;;21.08;30.42;98089.56;5140103;27;19968;-64
2023/05/28 10:21:20;;;;;;;;;;;;;;;21.25;28.96;98082.66;5169421;27;19923;-62
2023/05/28 10:23:48;;;;;;;;;;;;;;;21.16;29.73;98077.44;5168544;27;19919;-63
2023/05/28 10:26:18;;;;;;;;;;;;;;;21.12;29.53;98084.88;5163182;27;19934;-64
2023/05/28 10:28:46;;;;;;;;;;;;;;;20.98;29.76;98079.16;5169470;27;19962;-63
2023/05/28 10:31:14;;;;;;;;;;;;;;;21.17;30.33;98081.78;5153658;27;20643;-65
2023/05/28 10:33:42;;;;;;;;;;;;;;;21.19;28.92;98084.94;5141272;27;19923;-64
2023/05/28 10:36:11;;;;;;;;;;;;;;;21.15;28.84;98079.41;5149965;27;20014;-64
2023/05/28 10:38:45;;;;;;;;;;;;;;;21.07;29.23;98083.25;5144429;27;19919;-64
2023/05/28 10:41:21;;;;;;;;;;;;;;;20.98;29.40;98070.88;5135604;27;19929;-64
2023/05/28 10:43:49;;;;;;;;;;;;;;;20.89;29.11;98065.66;5118682;27;19924;-64
2023/05/28 10:46:17;;;;;;;;;;;;;;;21.03;27.96;98063.06;5148973;27;19927;-63
2023/05/28 10:49:00;;;;;;;;;;;;;;;21.16;28.31;98061.66;5140756;27;19920;-64
2023/05/28 10:51:42;;;;;;;;;;;;;;;21.34;29.13;98072.13;5131299;27;19940;-63
2023/05/28 10:54:15;;;;;;;;;;;;;;;21.29;30.10;98072.44;5129784;27;20011;-62
2023/05/28 10:56:57;;;;;;;;;;;;;;;21.34;29.52;98066.59;5146941;27;19919;-64
2023/05/28 10:59:38;;;;;;;;;;;;;;;21.32;29.35;98067.00;5128742;27;19976;-62
2023/05/28 11:02:07;;;;;;;;;;;;;;;21.27;29.07;98064.53;5140182;27;19935;-58
2023/05/28 11:04:35;;;;;;;;;;;;;;;21.54;28.57;98059.69;5147562;27;20335;-60
2023/05/28 11:07:03;;;;;;;;;;;;;;;21.37;29.04;98057.56;5130012;27;19919;-60
2023/05/28 11:09:31;;;;;;;;;;;;;;;21.50;29.26;98069.13;5136526;27;19931;-57
2023/05/28 11:11:59;;;;;;;;;;;;;;;21.65;29.44;98062.56;5144645;27;19919;-56
2023/05/28 11:14:30;;;;;;;;;;;;;;;21.59;29.79;98061.34;5154700;27;19929;-58
2023/05/28 11:16:59;;;;;;;;;;;;;;;21.61;29.27;98061.72;5149885;27;20571;-59
2023/05/28 11:19:27;;;;;;;;;;;;;;;21.56;29.64;98057.34;5145107;27;19923;-58
2023/05/28 11:21:55;;;;;;;;;;;;;;;21.61;30.39;98047.91;5144033;27;19931;-62
2023/05/28 11:24:24;;;;;;;;;;;;;;;21.65;29.19;98052.31;5139976;27;19919;-58
2023/05/28 11:26:52;;;;;;;;;;;;;;;21.70;28.81;98053.94;5140974;27;19920;-61
2023/05/28 11:29:20;;;;;;;;;;;;;;;21.59;29.19;98047.50;5138177;27;19919;-58
2023/05/28 11:31:48;;;;;;;;;;;;;;;21.65;29.94;98037.69;5141717;27;20021;-58
2023/05/28 11:34:19;;;;;;;;;;;;;;;21.64;29.16;98034.13;5140982;27;19923;-61
2023/05/28 11:36:49;;;;;;;;;;;;;;;21.64;29.09;98049.94;5145934;27;20010;-60
2023/05/28 11:39:17;;;;;;;;;;;;;;;21.64;29.36;98039.66;5141375;27;19957;-61
2023/05/28 11:41:45;;;;;;;;;;;;;;;21.78;28.28;98038.97;5142128;27;19950;-61
2023/05/28 11:44:21;;;;;;;;;;;;;;;21.93;28.53;98040.69;5147136;27;19963;-61
2023/05/28 11:46:50;;;;;;;;;;;;;;;21.81;28.21;98043.75;5147855;27;19923;-61
2023/05/28 11:49:19;;;;;;;;;;;;;;;21.91;27.83;98043.03;5143098;27;19939;-60
2023/05/28 11:51:47;;;;;;;;;;;;;;;21.97;29.45;98033.22;5151219;27;20447;-61
2023/05/28 11:54:15;;;;;;;;;;;;;;;21.86;28.87;98035.09;5142704;27;19926;-59
2023/05/28 11:56:42;;;;;;;;;;;;;;;21.94;28.91;98027.63;5141070;27;20352;-61
2023/05/28 11:59:10;;;;;;;;;;;;;;;21.83;28.80;98026.75;5146123;27;19958;-62
2023/05/28 12:01:39;;;;;;;;;;;;;;;21.81;28.87;98029.91;5152070;27;19945;-59
2023/05/28 12:04:07;;;;;;;;;;;;;;;21.79;29.52;98032.28;5147334;27;20029;-61
2023/05/28 12:06:36;;;;;;;;;;;;;;;22.03;28.79;98032.84;5152128;27;19919;-62
2023/05/28 12:09:08;;;;;;;;;;;;;;;21.96;27.99;98034.38;5148378;27;19927;-60
2023/05/28 12:11:35;;;;;;;;;;;;;;;22.00;28.84;98028.06;5125389;27;19931;-60
2023/05/28 12:14:11;;;;;;;;;;;;;;;21.86;28.23;98042.59;5146877;27;19972;-64
2023/05/28 12:16:46;;;;;;;;;;;;;;;21.74;28.11;98029.88;5140321;27;19972;-60
2023/05/28 12:19:15;;;;;;;;;;;;;;;21.78;28.29;98029.88;5144918;27;20157;-60
2023/05/28 12:21:44;;;;;;;;;;;;;;;21.91;28.00;98026.44;5137311;27;19954;-60
2023/05/28 12:24:13;;;;;;;;;;;;;;;21.88;28.05;98029.97;5129865;27;19919;-61
2023/05/28 12:26:41;;;;;;;;;;;;;;;21.84;27.60;98023.63;5135208;27;19921;-60
2023/05/28 12:29:09;;;;;;;;;;;;;;;22.00;28.28;98017.00;5148075;27;20006;-60
2023/05/28 12:31:36;;;;;;;;;;;;;;;21.98;28.23;98015.44;5138438;27;19943;-60
2023/05/28 12:34:05;;;;;;;;;;;;;;;22.15;28.41;98007.66;5147832;27;19972;-60
2023/05/28 12:36:34;;;;;;;;;;;;;;;22.19;28.44;98012.03;5149628;27;19923;-60
2023/05/28 12:39:04;;;;;;;;;;;;;;;22.27;27.87;98015.66;5147124;27;20010;-61
2023/05/28 12:41:32;;;;;;;;;;;;;;;22.36;27.72;98012.53;5144091;27;19919;-60
2023/05/28 12:44:00;;;;;;;;;;;;;;;22.34;28.21;98012.94;5141269;27;20009;-60
2023/05/28 12:46:28;;;;;;;;;;;;;;;22.35;27.63;98010.97;5147606;27;20006;-61
2023/05/28 12:48:55;;;;;;;;;;;;;;;22.34;27.90;98007.41;5147002;27;19941;-60
2023/05/28 12:51:23;;;;;;;;;;;;;;;22.43;27.16;98009.81;5150057;27;20017;-60
2023/05/28 12:53:51;;;;;;;;;;;;;;;22.39;27.23;98011.78;5143291;27;19957;-60
2023/05/28 12:56:20;;;;;;;;;;;;;;;22.37;27.75;98003.88;5148824;27;19972;-60
2023/05/28 12:58:50;;;;;;;;;;;;;;;22.36;27.51;97999.50;5142666;27;19948;-60
2023/05/28 13:01:18;;;;;;;;;;;;;;;22.33;27.85;97999.50;5141034;27;19923;-60
2023/05/28 13:03:46;;;;;;;;;;;;;;;22.33;28.76;97991.97;5129810;27;20349;-60